Time;durP1;ratioP1;P1;durP2;ratioP2;P2;SDS_P1;SDS_P2;PMS_P1;PMS_P2;Temp;Humidity;BMP_temperature;BMP_pressure;BME280_temperature;BME280_humidity;BME280_pressure;Samples;Min_cycle;Max_cycle;Signal;HPM_P1;HPM_P2
2023/05/18 00:01:02;;;;;;;;;;;5.40;99.90;;;;;;5054611;28;19924;-81
2023/05/18 00:03:28;;;;;;;;;;;5.40;99.90;;;;;;5076123;28;19931;-81
2023/05/18 00:05:56;;;;;;;;;;;5.40;99.90;;;;;;5061949;28;19924;-80
2023/05/18 00:08:22;;;;;;;;;;;5.40;99.90;;;;;;5068298;28;19931;-81
2023/05/18 00:10:47;;;;;;;;;;;5.40;99.90;;;;;;5054792;28;19971;-80
2023/05/18 00:13:13;;;;;;;;;;;5.30;99.90;;;;;;5072974;28;20391;-80
2023/05/18 00:15:39;;;;;;;;;;;5.30;99.90;;;;;;5081997;28;20327;-80
2023/05/18 00:18:05;;;;;;;;;;;5.30;99.90;;;;;;5115772;28;19932;-80
2023/05/18 00:20:31;;;;;;;;;;;5.20;99.90;;;;;;5051717;28;19924;-81
2023/05/18 00:22:56;;;;;;;;;;;5.20;99.90;;;;;;5078767;28;19928;-80
2023/05/18 00:25:22;;;;;;;;;;;5.20;99.90;;;;;;5064631;28;19931;-80
2023/05/18 00:27:48;;;;;;;;;;;5.10;99.90;;;;;;5061391;28;20011;-81
2023/05/18 00:30:14;;;;;;;;;;;5.00;99.90;;;;;;5075619;28;19924;-80
2023/05/18 00:32:40;;;;;;;;;;;5.00;99.90;;;;;;5050305;28;19987;-80
2023/05/18 00:35:06;;;;;;;;;;;5.00;99.90;;;;;;5061395;28;19948;-80
2023/05/18 00:37:31;;;;;;;;;;;5.00;99.90;;;;;;5092404;28;19983;-80
2023/05/18 00:39:57;;;;;;;;;;;5.00;99.90;;;;;;5052761;28;19993;-80
2023/05/18 00:42:23;;;;;;;;;;;5.00;99.90;;;;;;5067391;28;19927;-80
2023/05/18 00:44:48;;;;;;;;;;;4.90;99.90;;;;;;5068879;28;20421;-80
2023/05/18 00:47:14;;;;;;;;;;;4.90;99.90;;;;;;5096146;28;19963;-81
2023/05/18 00:49:40;;;;;;;;;;;4.90;99.90;;;;;;5057389;28;19924;-80
2023/05/18 00:52:06;;;;;;;;;;;4.90;99.90;;;;;;5084042;28;19928;-80
2023/05/18 00:54:33;;;;;;;;;;;4.90;99.90;;;;;;5061386;28;19928;-80
2023/05/18 00:57:01;;;;;;;;;;;4.90;99.90;;;;;;5071893;28;19932;-80
2023/05/18 00:59:27;;;;;;;;;;;4.90;99.90;;;;;;5067825;28;19955;-80
2023/05/18 01:01:53;;;;;;;;;;;4.90;99.90;;;;;;5086230;28;19924;-80
2023/05/18 01:04:20;;;;;;;;;;;4.90;99.90;;;;;;5067592;28;19931;-80
2023/05/18 01:06:46;;;;;;;;;;;4.80;99.90;;;;;;5068454;28;19991;-80
2023/05/18 01:09:12;;;;;;;;;;;4.80;99.90;;;;;;5112203;28;19923;-80
2023/05/18 01:11:56;;;;;;;;;;;4.80;99.90;;;;;;5054623;28;19928;-80
2023/05/18 01:14:44;;;;;;;;;;;4.80;99.90;;;;;;5085455;28;20339;-80
2023/05/18 01:17:22;;;;;;;;;;;4.80;99.90;;;;;;5109948;28;19924;-80
2023/05/18 01:19:50;;;;;;;;;;;4.70;99.90;;;;;;5083276;28;19923;-80
2023/05/18 01:22:25;;;;;;;;;;;4.70;99.90;;;;;;5080094;28;19978;-80
2023/05/18 01:24:55;;;;;;;;;;;4.60;99.90;;;;;;5112333;28;19973;-80
2023/05/18 01:27:23;;;;;;;;;;;4.60;99.90;;;;;;5088794;28;20659;-80
2023/05/18 01:29:49;;;;;;;;;;;4.60;99.90;;;;;;5111215;28;19932;-80
2023/05/18 01:32:19;;;;;;;;;;;4.50;99.90;;;;;;5077125;28;19931;-80
2023/05/18 01:34:45;;;;;;;;;;;4.50;99.90;;;;;;5079128;28;19931;-80
2023/05/18 01:37:10;;;;;;;;;;;4.40;99.90;;;;;;5067023;28;19928;-80
2023/05/18 01:39:36;;;;;;;;;;;4.40;99.90;;;;;;5055934;28;19928;-80
2023/05/18 01:42:05;;;;;;;;;;;4.40;99.90;;;;;;5099340;28;19930;-80
2023/05/18 01:44:54;;;;;;;;;;;4.40;99.90;;;;;;5082442;28;19928;-80
2023/05/18 01:47:20;;;;;;;;;;;4.40;99.90;;;;;;5055460;28;20019;-80
2023/05/18 01:49:58;;;;;;;;;;;4.30;99.90;;;;;;5080942;28;19928;-80
2023/05/18 01:52:43;;;;;;;;;;;4.30;99.90;;;;;;5102159;28;19927;-79
2023/05/18 01:55:10;;;;;;;;;;;4.30;99.90;;;;;;5117818;28;19931;-80
2023/05/18 01:57:38;;;;;;;;;;;4.30;99.90;;;;;;5076613;28;19935;-79
2023/05/18 02:00:06;;;;;;;;;;;4.30;99.90;;;;;;5070805;28;19924;-80
2023/05/18 02:02:32;;;;;;;;;;;4.30;99.90;;;;;;5072904;28;19924;-80
2023/05/18 02:04:58;;;;;;;;;;;4.20;99.90;;;;;;5063056;28;19950;-80
2023/05/18 02:07:23;;;;;;;;;;;4.20;99.90;;;;;;5057040;28;19932;-80
2023/05/18 02:09:49;;;;;;;;;;;4.20;99.90;;;;;;5099006;28;19932;-80
2023/05/18 02:12:14;;;;;;;;;;;4.10;99.90;;;;;;5090203;28;19930;-80
2023/05/18 02:14:40;;;;;;;;;;;4.20;99.90;;;;;;5049055;28;20392;-80
2023/05/18 02:17:06;;;;;;;;;;;4.20;99.90;;;;;;5057157;28;19959;-80
2023/05/18 02:19:31;;;;;;;;;;;4.20;99.90;;;;;;5052423;28;19934;-80
2023/05/18 02:21:57;;;;;;;;;;;4.20;99.90;;;;;;5066531;28;19928;-80
2023/05/18 02:24:23;;;;;;;;;;;4.20;99.90;;;;;;5072156;28;19971;-80
2023/05/18 02:26:52;;;;;;;;;;;4.20;99.90;;;;;;5076843;28;19935;-80
2023/05/18 02:29:17;;;;;;;;;;;4.30;99.90;;;;;;5103427;28;19931;-80
2023/05/18 02:31:43;;;;;;;;;;;4.30;99.90;;;;;;5093612;28;19924;-80
2023/05/18 02:34:09;;;;;;;;;;;4.30;99.90;;;;;;5070596;28;19923;-80
2023/05/18 02:36:39;;;;;;;;;;;4.40;99.90;;;;;;5074186;28;19935;-80
2023/05/18 02:39:05;;;;;;;;;;;4.40;99.90;;;;;;5087412;28;19988;-80
2023/05/18 02:41:35;;;;;;;;;;;4.40;99.90;;;;;;5090986;28;19928;-80
2023/05/18 02:44:03;;;;;;;;;;;4.40;99.90;;;;;;5076763;28;19952;-80
2023/05/18 02:46:29;;;;;;;;;;;4.40;99.90;;;;;;5077028;28;19925;-80
2023/05/18 02:48:54;;;;;;;;;;;4.50;99.90;;;;;;5080563;28;19924;-80
2023/05/18 02:51:23;;;;;;;;;;;4.50;99.90;;;;;;5095091;28;19993;-80
2023/05/18 02:53:49;;;;;;;;;;;4.40;99.90;;;;;;5096703;28;19929;-80
2023/05/18 02:56:16;;;;;;;;;;;4.40;99.90;;;;;;5069124;28;19963;-80
2023/05/18 02:58:42;;;;;;;;;;;4.40;99.90;;;;;;5069003;28;19925;-80
2023/05/18 03:01:08;;;;;;;;;;;4.50;99.90;;;;;;5068400;28;20602;-80
2023/05/18 03:03:34;;;;;;;;;;;4.40;99.90;;;;;;5070320;28;19932;-80
2023/05/18 03:06:01;;;;;;;;;;;4.40;99.90;;;;;;5114968;27;19935;-80
2023/05/18 03:08:27;;;;;;;;;;;4.40;99.90;;;;;;5085393;28;19969;-80
2023/05/18 03:10:53;;;;;;;;;;;4.40;99.90;;;;;;5086024;28;19931;-79
2023/05/18 03:13:19;;;;;;;;;;;4.30;99.90;;;;;;5078007;28;19924;-80
2023/05/18 03:15:45;;;;;;;;;;;4.30;99.90;;;;;;5049470;28;19924;-80
2023/05/18 03:18:10;;;;;;;;;;;4.30;99.90;;;;;;5050464;28;19924;-79
2023/05/18 03:20:36;;;;;;;;;;;4.30;99.90;;;;;;5081069;28;19932;-80
2023/05/18 03:23:02;;;;;;;;;;;4.30;99.90;;;;;;5081191;28;19970;-80
2023/05/18 03:25:29;;;;;;;;;;;4.20;99.90;;;;;;5080812;28;19932;-80
2023/05/18 03:27:54;;;;;;;;;;;4.30;99.90;;;;;;5066397;28;19931;-80
2023/05/18 03:30:20;;;;;;;;;;;4.30;99.90;;;;;;5062725;28;19939;-80
2023/05/18 03:32:46;;;;;;;;;;;4.30;99.90;;;;;;5078597;28;19928;-80
2023/05/18 03:35:12;;;;;;;;;;;4.30;99.90;;;;;;5083087;28;19928;-80
2023/05/18 03:37:38;;;;;;;;;;;4.40;99.90;;;;;;5064370;28;19924;-80
2023/05/18 03:40:13;;;;;;;;;;;4.40;99.90;;;;;;5095609;28;19946;-80
2023/05/18 03:42:39;;;;;;;;;;;4.50;99.90;;;;;;5073092;28;19930;-80
2023/05/18 03:45:06;;;;;;;;;;;4.50;99.90;;;;;;5097063;28;19928;-80
2023/05/18 03:47:32;;;;;;;;;;;4.50;99.90;;;;;;5051274;28;19943;-80
2023/05/18 03:49:58;;;;;;;;;;;4.50;99.90;;;;;;5079519;28;19924;-80
2023/05/18 03:52:23;;;;;;;;;;;4.60;99.90;;;;;;5078413;28;20185;-80
2023/05/18 03:54:49;;;;;;;;;;;4.60;99.90;;;;;;5077636;28;19958;-80
2023/05/18 03:57:15;;;;;;;;;;;4.60;99.90;;;;;;5068849;28;19925;-80
2023/05/18 03:59:41;;;;;;;;;;;4.60;99.90;;;;;;5066440;28;19939;-80
2023/05/18 04:02:07;;;;;;;;;;;4.70;99.90;;;;;;5048871;28;19974;-80
2023/05/18 04:04:33;;;;;;;;;;;4.70;99.90;;;;;;5093877;28;19931;-80
2023/05/18 04:07:00;;;;;;;;;;;4.70;99.90;;;;;;5110656;27;19935;-80
2023/05/18 04:09:26;;;;;;;;;;;4.70;99.90;;;;;;5067401;28;19931;-80
2023/05/18 04:11:52;;;;;;;;;;;4.80;99.90;;;;;;5069219;28;19928;-80
2023/05/18 04:14:19;;;;;;;;;;;4.80;99.90;;;;;;5063099;28;19924;-80
2023/05/18 04:16:45;;;;;;;;;;;4.80;99.90;;;;;;5095822;28;19932;-80
2023/05/18 04:19:12;;;;;;;;;;;4.80;99.90;;;;;;5049903;28;19925;-80
2023/05/18 04:21:42;;;;;;;;;;;4.80;99.90;;;;;;5073286;28;19931;-80
2023/05/18 04:24:08;;;;;;;;;;;4.90;99.90;;;;;;5074506;28;19935;-80
2023/05/18 04:26:35;;;;;;;;;;;4.90;99.90;;;;;;5083103;28;19935;-79
2023/05/18 04:29:06;;;;;;;;;;;5.00;99.90;;;;;;5100936;28;19923;-80
2023/05/18 04:31:35;;;;;;;;;;;5.10;99.90;;;;;;5119252;28;19924;-80
2023/05/18 04:34:01;;;;;;;;;;;5.20;99.90;;;;;;5084829;28;19965;-80
2023/05/18 04:36:29;;;;;;;;;;;5.30;99.90;;;;;;5068769;28;19947;-80
2023/05/18 04:38:57;;;;;;;;;;;5.30;99.90;;;;;;5098916;28;20382;-80
2023/05/18 04:41:23;;;;;;;;;;;5.40;99.90;;;;;;5102406;28;20415;-80
2023/05/18 04:43:52;;;;;;;;;;;5.40;99.90;;;;;;5080235;28;20406;-80
2023/05/18 04:46:17;;;;;;;;;;;5.60;99.90;;;;;;5072761;28;20399;-80
2023/05/18 04:48:43;;;;;;;;;;;5.80;99.90;;;;;;5070680;28;19931;-79
2023/05/18 04:51:09;;;;;;;;;;;6.00;99.90;;;;;;5084619;28;19928;-79
2023/05/18 04:53:37;;;;;;;;;;;6.20;99.90;;;;;;5058050;28;19928;-79
2023/05/18 04:56:03;;;;;;;;;;;6.40;99.90;;;;;;5081540;28;19988;-80
2023/05/18 04:58:29;;;;;;;;;;;6.60;99.90;;;;;;5084976;28;20210;-80
2023/05/18 05:00:55;;;;;;;;;;;6.80;99.90;;;;;;5064154;28;19924;-80
2023/05/18 05:03:21;;;;;;;;;;;7.10;99.90;;;;;;5093909;28;19946;-80
2023/05/18 05:05:47;;;;;;;;;;;7.50;99.90;;;;;;5079692;28;19987;-80
2023/05/18 05:08:12;;;;;;;;;;;7.90;99.90;;;;;;5075939;28;19995;-80
2023/05/18 05:10:38;;;;;;;;;;;8.40;99.90;;;;;;5078120;28;19930;-80
2023/05/18 05:13:03;;;;;;;;;;;8.70;99.90;;;;;;5097816;28;19925;-80
2023/05/18 05:15:29;;;;;;;;;;;8.90;99.90;;;;;;5115813;28;19962;-80
2023/05/18 05:17:55;;;;;;;;;;;9.00;99.90;;;;;;5078054;28;19963;-80
2023/05/18 05:20:21;;;;;;;;;;;9.20;99.90;;;;;;5071431;28;19970;-80
2023/05/18 05:22:47;;;;;;;;;;;9.30;99.90;;;;;;5095462;28;19935;-80
2023/05/18 05:25:12;;;;;;;;;;;9.40;99.90;;;;;;5097686;28;19934;-80
2023/05/18 05:27:38;;;;;;;;;;;9.40;99.90;;;;;;5111604;28;19936;-80
2023/05/18 05:30:04;;;;;;;;;;;9.40;99.90;;;;;;5054779;28;19932;-80
2023/05/18 05:32:29;;;;;;;;;;;9.20;99.90;;;;;;5058668;28;19964;-81
2023/05/18 05:34:55;;;;;;;;;;;9.10;99.90;;;;;;5097445;28;20019;-80
2023/05/18 05:37:20;;;;;;;;;;;9.10;99.90;;;;;;5076862;28;19924;-80
2023/05/18 05:39:46;;;;;;;;;;;9.00;99.90;;;;;;5085645;28;19991;-80
2023/05/18 05:42:12;;;;;;;;;;;9.00;99.90;;;;;;5097275;28;19935;-80
2023/05/18 05:44:39;;;;;;;;;;;9.00;99.90;;;;;;5073542;28;19924;-80
2023/05/18 05:47:05;;;;;;;;;;;8.90;99.90;;;;;;5097015;28;19931;-80
2023/05/18 05:49:31;;;;;;;;;;;9.00;99.90;;;;;;5098245;28;19924;-80
2023/05/18 05:51:56;;;;;;;;;;;9.00;99.90;;;;;;5093163;28;19924;-80
2023/05/18 05:54:22;;;;;;;;;;;9.00;99.90;;;;;;5085561;28;19928;-80
2023/05/18 05:56:47;;;;;;;;;;;9.00;99.90;;;;;;5057990;28;19931;-80
2023/05/18 05:59:13;;;;;;;;;;;9.10;99.90;;;;;;5066383;28;19935;-80
2023/05/18 06:01:39;;;;;;;;;;;9.20;99.90;;;;;;5070472;28;19935;-80
2023/05/18 06:04:09;;;;;;;;;;;9.30;99.90;;;;;;5111704;28;19928;-79
2023/05/18 06:06:36;;;;;;;;;;;9.40;99.90;;;;;;5081884;28;20028;-79
2023/05/18 06:09:03;;;;;;;;;;;9.40;99.90;;;;;;5080486;28;20329;-80
2023/05/18 06:11:29;;;;;;;;;;;9.50;99.90;;;;;;5084883;28;19948;-80
2023/05/18 06:13:54;;;;;;;;;;;9.50;99.90;;;;;;5069957;28;20472;-85
2023/05/18 06:16:20;;;;;;;;;;;9.50;99.90;;;;;;5078382;28;19929;-78
2023/05/18 06:18:46;;;;;;;;;;;9.50;99.90;;;;;;5089612;28;19928;-79
2023/05/18 06:21:12;;;;;;;;;;;9.60;99.90;;;;;;5061631;28;19928;-78
2023/05/18 06:23:38;;;;;;;;;;;9.60;99.90;;;;;;5061829;28;19931;-78
2023/05/18 06:26:03;;;;;;;;;;;9.70;99.90;;;;;;5079371;28;19928;-78
2023/05/18 06:28:29;;;;;;;;;;;9.70;99.90;;;;;;5077365;28;19946;-78
2023/05/18 06:30:55;;;;;;;;;;;9.80;99.90;;;;;;5041773;28;19924;-78
2023/05/18 06:33:22;;;;;;;;;;;9.90;99.90;;;;;;5067494;28;19975;-77
2023/05/18 06:35:48;;;;;;;;;;;10.00;99.90;;;;;;5059502;28;20402;-78
2023/05/18 06:38:13;;;;;;;;;;;10.10;99.90;;;;;;5069811;28;19925;-78
2023/05/18 06:40:39;;;;;;;;;;;10.20;99.90;;;;;;5085987;28;19924;-78
2023/05/18 06:43:04;;;;;;;;;;;10.40;99.90;;;;;;5067225;28;19924;-78
2023/05/18 06:45:30;;;;;;;;;;;10.60;99.90;;;;;;5046550;28;19925;-78
2023/05/18 06:47:56;;;;;;;;;;;10.70;99.90;;;;;;5056571;28;20003;-78
2023/05/18 06:50:21;;;;;;;;;;;10.90;99.90;;;;;;5039959;28;19929;-78
2023/05/18 06:52:47;;;;;;;;;;;10.90;99.90;;;;;;5087781;28;19928;-78
2023/05/18 06:55:14;;;;;;;;;;;11.10;99.90;;;;;;5101852;28;19939;-78
2023/05/18 06:57:40;;;;;;;;;;;11.00;99.90;;;;;;5073130;28;19940;-78
2023/05/18 07:00:06;;;;;;;;;;;10.90;99.90;;;;;;5072194;28;19925;-77
2023/05/18 07:02:32;;;;;;;;;;;11.00;99.90;;;;;;5052611;28;20711;-78
2023/05/18 07:04:58;;;;;;;;;;;11.00;99.90;;;;;;5073387;28;19925;-78
2023/05/18 07:07:23;;;;;;;;;;;11.00;99.90;;;;;;5091510;28;19959;-78
2023/05/18 07:09:49;;;;;;;;;;;11.20;99.90;;;;;;5074342;28;19928;-77
2023/05/18 07:12:15;;;;;;;;;;;11.40;99.90;;;;;;5044210;28;19925;-78
2023/05/18 07:14:40;;;;;;;;;;;11.50;99.90;;;;;;5076113;28;20473;-78
2023/05/18 07:17:06;;;;;;;;;;;11.70;99.90;;;;;;5074566;28;19928;-78
2023/05/18 07:19:33;;;;;;;;;;;11.90;99.90;;;;;;5090706;28;20497;-78
2023/05/18 07:21:59;;;;;;;;;;;12.10;99.90;;;;;;5044967;28;19931;-78
2023/05/18 07:24:25;;;;;;;;;;;12.00;99.90;;;;;;5074974;28;19928;-77
2023/05/18 07:26:50;;;;;;;;;;;11.90;99.90;;;;;;5075587;28;19986;-78
2023/05/18 07:29:16;;;;;;;;;;;11.70;99.90;;;;;;5058650;28;19929;-78
2023/05/18 07:31:41;;;;;;;;;;;11.60;99.50;;;;;;5080757;28;20336;-77
2023/05/18 07:34:07;;;;;;;;;;;11.60;99.90;;;;;;5055727;28;19928;-78
2023/05/18 07:36:33;;;;;;;;;;;11.70;99.90;;;;;;5067810;28;19924;-80
2023/05/18 07:38:59;;;;;;;;;;;11.80;99.90;;;;;;5089741;28;20011;-77
2023/05/18 07:41:26;;;;;;;;;;;11.90;99.90;;;;;;5094396;28;19924;-77
2023/05/18 07:43:52;;;;;;;;;;;12.00;99.00;;;;;;5082660;28;19924;-77
2023/05/18 07:46:18;;;;;;;;;;;12.10;99.90;;;;;;5097273;28;20345;-77
2023/05/18 07:48:44;;;;;;;;;;;12.10;99.20;;;;;;5066494;28;19931;-78
2023/05/18 07:51:10;;;;;;;;;;;12.00;99.00;;;;;;5092290;28;20481;-77
2023/05/18 07:53:36;;;;;;;;;;;12.00;99.90;;;;;;5094237;28;19932;-77
2023/05/18 07:56:02;;;;;;;;;;;12.10;99.90;;;;;;5041275;28;19931;-77
2023/05/18 07:58:28;;;;;;;;;;;12.20;99.50;;;;;;5061501;28;19936;-77
2023/05/18 08:00:54;;;;;;;;;;;12.10;99.50;;;;;;5045891;28;20353;-77
2023/05/18 08:03:19;;;;;;;;;;;12.10;99.60;;;;;;5074405;28;19964;-77
2023/05/18 08:05:45;;;;;;;;;;;12.10;99.40;;;;;;5077037;28;19976;-77
2023/05/18 08:08:14;;;;;;;;;;;12.10;99.90;;;;;;5072093;28;20058;-77
2023/05/18 08:10:42;;;;;;;;;;;12.20;99.90;;;;;;5059837;28;19931;-77
2023/05/18 08:13:08;;;;;;;;;;;12.20;99.90;;;;;;5067009;28;19924;-78
2023/05/18 08:15:34;;;;;;;;;;;12.20;96.80;;;;;;5078526;28;19988;-77
2023/05/18 08:17:59;;;;;;;;;;;12.30;99.50;;;;;;5051213;28;19971;-78
2023/05/18 08:20:28;;;;;;;;;;;12.40;99.30;;;;;;5090318;28;20409;-77
2023/05/18 08:22:55;;;;;;;;;;;12.50;96.80;;;;;;5080900;28;19924;-77
2023/05/18 08:25:21;;;;;;;;;;;12.40;96.50;;;;;;5080533;28;19924;-77
2023/05/18 08:27:46;;;;;;;;;;;12.30;96.30;;;;;;5071246;28;19935;-77
2023/05/18 08:30:12;;;;;;;;;;;12.30;98.50;;;;;;5069766;28;19950;-77
2023/05/18 08:32:37;;;;;;;;;;;12.30;98.00;;;;;;5088673;28;19924;-77
2023/05/18 08:35:04;;;;;;;;;;;12.40;95.80;;;;;;5072720;28;19935;-77
2023/05/18 08:37:30;;;;;;;;;;;12.50;96.80;;;;;;5090869;28;19944;-77
2023/05/18 08:39:56;;;;;;;;;;;12.70;94.00;;;;;;5089027;28;19928;-77
2023/05/18 08:42:26;;;;;;;;;;;12.70;96.60;;;;;;5042334;28;19925;-77
2023/05/18 08:44:57;;;;;;;;;;;12.90;98.30;;;;;;5061993;28;19924;-77
2023/05/18 08:47:25;;;;;;;;;;;13.50;95.40;;;;;;5088708;28;19928;-77
2023/05/18 08:49:51;;;;;;;;;;;13.80;93.00;;;;;;5077052;28;19924;-77
2023/05/18 08:52:18;;;;;;;;;;;13.90;92.50;;;;;;5096737;28;19939;-78
2023/05/18 08:54:43;;;;;;;;;;;14.30;94.50;;;;;;5072515;28;19935;-78
2023/05/18 08:57:10;;;;;;;;;;;14.70;91.80;;;;;;5048276;28;19925;-77
2023/05/18 08:59:38;;;;;;;;;;;15.00;90.60;;;;;;5064522;28;20118;-77
2023/05/18 09:02:04;;;;;;;;;;;15.20;90.40;;;;;;5065815;28;19930;-77
2023/05/18 09:04:33;;;;;;;;;;;15.60;89.70;;;;;;5084803;28;20411;-77
2023/05/18 09:07:01;;;;;;;;;;;15.70;88.10;;;;;;5092407;28;19963;-78
2023/05/18 09:09:27;;;;;;;;;;;15.90;81.90;;;;;;5114750;28;19959;-77
2023/05/18 09:11:54;;;;;;;;;;;15.90;80.10;;;;;;5066251;28;19924;-78
2023/05/18 09:14:24;;;;;;;;;;;15.70;83.40;;;;;;5059073;28;19924;-78
2023/05/18 09:16:51;;;;;;;;;;;15.90;82.90;;;;;;5085747;28;19929;-77
2023/05/18 09:19:16;;;;;;;;;;;15.90;89.20;;;;;;5088280;28;19979;-78
2023/05/18 09:21:42;;;;;;;;;;;15.70;89.80;;;;;;5046448;28;19929;-77
2023/05/18 09:24:08;;;;;;;;;;;15.50;77.10;;;;;;5062061;28;19932;-78
2023/05/18 09:26:33;;;;;;;;;;;15.40;79.70;;;;;;5073249;28;19924;-78
2023/05/18 09:29:00;;;;;;;;;;;15.60;73.90;;;;;;5106349;28;19931;-78
2023/05/18 09:31:26;;;;;;;;;;;15.90;83.30;;;;;;5063947;28;19923;-77
2023/05/18 09:33:52;;;;;;;;;;;16.10;78.10;;;;;;5058435;28;19946;-77
2023/05/18 09:36:22;;;;;;;;;;;16.40;77.20;;;;;;5070374;28;19933;-78
2023/05/18 09:38:50;;;;;;;;;;;16.50;72.70;;;;;;5105475;28;19959;-77
2023/05/18 09:41:16;;;;;;;;;;;16.50;72.50;;;;;;5064276;28;19970;-77
2023/05/18 09:43:45;;;;;;;;;;;16.60;75.60;;;;;;5064100;28;19924;-77
2023/05/18 09:46:11;;;;;;;;;;;16.90;75.70;;;;;;5060728;28;19931;-78
2023/05/18 09:48:42;;;;;;;;;;;16.90;71.70;;;;;;5077052;28;19932;-78
2023/05/18 09:51:15;;;;;;;;;;;16.90;70.10;;;;;;5086856;28;19974;-78
2023/05/18 09:53:41;;;;;;;;;;;17.00;69.30;;;;;;5075526;28;19939;-77
2023/05/18 09:56:10;;;;;;;;;;;17.10;70.00;;;;;;5065582;28;19924;-77
2023/05/18 09:58:39;;;;;;;;;;;17.10;68.30;;;;;;5069722;28;19929;-78
2023/05/18 10:01:05;;;;;;;;;;;17.20;72.10;;;;;;5068282;28;19924;-78
2023/05/18 10:03:38;;;;;;;;;;;17.30;72.20;;;;;;5073717;28;19990;-77
2023/05/18 10:06:05;;;;;;;;;;;17.40;71.80;;;;;;5117316;27;19967;-78
2023/05/18 10:08:31;;;;;;;;;;;17.50;70.70;;;;;;5079864;28;19955;-77
2023/05/18 10:10:56;;;;;;;;;;;17.60;65.80;;;;;;5062091;28;20475;-78
2023/05/18 10:13:24;;;;;;;;;;;17.50;69.40;;;;;;5061786;28;19931;-78
2023/05/18 10:15:52;;;;;;;;;;;17.30;71.50;;;;;;5063061;28;19933;-78
2023/05/18 10:18:22;;;;;;;;;;;17.00;64.30;;;;;;5062100;28;19980;-77
2023/05/18 10:20:48;;;;;;;;;;;16.80;66.70;;;;;;5076699;28;20303;-78
2023/05/18 10:23:14;;;;;;;;;;;16.60;70.40;;;;;;5073154;28;20395;-77
2023/05/18 10:25:41;;;;;;;;;;;16.60;72.10;;;;;;5063196;28;19928;-78
2023/05/18 10:28:08;;;;;;;;;;;16.50;67.10;;;;;;5090323;28;19932;-77
2023/05/18 10:30:35;;;;;;;;;;;16.40;68.80;;;;;;5063814;28;19928;-77
2023/05/18 10:33:01;;;;;;;;;;;16.30;70.80;;;;;;5097813;28;19960;-78
2023/05/18 10:35:27;;;;;;;;;;;16.20;74.60;;;;;;5049506;28;19933;-80
2023/05/18 10:37:53;;;;;;;;;;;16.40;71.70;;;;;;5053341;28;19935;-78
2023/05/18 10:40:20;;;;;;;;;;;16.40;66.20;;;;;;5085639;28;19924;-78
2023/05/18 10:42:45;;;;;;;;;;;16.50;70.60;;;;;;5064500;28;19925;-78
2023/05/18 10:45:11;;;;;;;;;;;16.70;68.50;;;;;;5083419;28;19984;-78
2023/05/18 10:47:38;;;;;;;;;;;16.80;70.20;;;;;;5064475;28;19971;-78
2023/05/18 10:50:04;;;;;;;;;;;16.80;68.30;;;;;;5068774;28;19943;-78
2023/05/18 10:52:30;;;;;;;;;;;16.80;68.00;;;;;;5072686;28;20058;-79
2023/05/18 10:54:57;;;;;;;;;;;16.80;68.60;;;;;;5113227;28;19928;-79
2023/05/18 10:57:22;;;;;;;;;;;16.90;69.30;;;;;;5065536;28;19924;-77
2023/05/18 10:59:48;;;;;;;;;;;17.00;69.20;;;;;;5084044;28;19954;-78
2023/05/18 11:02:16;;;;;;;;;;;17.20;69.00;;;;;;5066520;28;19924;-78
2023/05/18 11:04:42;;;;;;;;;;;17.20;67.30;;;;;;5083796;28;20410;-79
2023/05/18 11:07:11;;;;;;;;;;;17.20;67.90;;;;;;5087329;28;19930;-78
2023/05/18 11:09:40;;;;;;;;;;;17.30;68.70;;;;;;5087279;28;20019;-78
2023/05/18 11:12:10;;;;;;;;;;;17.40;65.00;;;;;;5071807;28;19924;-78
2023/05/18 11:14:45;;;;;;;;;;;17.30;64.00;;;;;;5099597;28;19924;-78
2023/05/18 11:17:21;;;;;;;;;;;17.10;64.10;;;;;;5066167;28;19946;-78
2023/05/18 11:20:11;;;;;;;;;;;17.00;66.70;;;;;;5065874;28;19939;-79
2023/05/18 11:22:44;;;;;;;;;;;17.00;64.10;;;;;;5080707;28;19924;-78
2023/05/18 11:25:29;;;;;;;;;;;17.10;67.10;;;;;;5071267;28;19958;-78
2023/05/18 11:27:56;;;;;;;;;;;17.30;69.90;;;;;;5118986;28;19931;-78
2023/05/18 11:30:28;;;;;;;;;;;17.40;64.90;;;;;;5081456;28;19966;-75
2023/05/18 11:33:14;;;;;;;;;;;17.40;65.80;;;;;;5068706;28;19940;-78
2023/05/18 11:36:06;;;;;;;;;;;17.40;66.50;;;;;;5078001;28;20460;-75
2023/05/18 11:38:44;;;;;;;;;;;17.20;64.30;;;;;;5076999;28;19979;-79
2023/05/18 11:41:29;;;;;;;;;;;17.20;65.20;;;;;;5097361;28;19928;-79
2023/05/18 11:44:10;;;;;;;;;;;17.30;66.00;;;;;;5068024;28;19924;-79
2023/05/18 11:46:36;;;;;;;;;;;17.30;67.60;;;;;;5066836;28;19924;-77
2023/05/18 11:49:14;;;;;;;;;;;17.30;67.20;;;;;;5090891;28;19934;-79
2023/05/18 11:51:59;;;;;;;;;;;17.40;66.80;;;;;;5065848;28;19928;-79
2023/05/18 11:54:25;;;;;;;;;;;17.60;64.00;;;;;;5091899;28;20292;-79
2023/05/18 11:56:54;;;;;;;;;;;17.70;62.40;;;;;;5108440;28;19924;-79
2023/05/18 11:59:35;;;;;;;;;;;17.50;64.20;;;;;;5082905;28;19930;-78
2023/05/18 12:02:02;;;;;;;;;;;17.40;66.10;;;;;;5083766;28;19924;-79
2023/05/18 12:04:28;;;;;;;;;;;17.50;65.30;;;;;;5092630;28;20395;-79
2023/05/18 12:06:55;;;;;;;;;;;17.60;62.70;;;;;;5052649;28;19925;-79
2023/05/18 12:09:21;;;;;;;;;;;17.50;63.60;;;;;;5061452;28;19924;-78
2023/05/18 12:11:46;;;;;;;;;;;17.40;61.30;;;;;;5062508;28;19935;-79
2023/05/18 12:14:12;;;;;;;;;;;17.40;62.10;;;;;;5096494;28;19992;-79
2023/05/18 12:16:39;;;;;;;;;;;17.50;64.40;;;;;;5062364;28;19924;-79
2023/05/18 12:19:06;;;;;;;;;;;17.60;66.90;;;;;;5069446;28;19924;-78
2023/05/18 12:21:33;;;;;;;;;;;17.60;63.70;;;;;;5061017;28;19946;-79
2023/05/18 12:23:59;;;;;;;;;;;17.40;64.10;;;;;;5062239;28;19924;-78
2023/05/18 12:26:27;;;;;;;;;;;17.10;63.40;;;;;;5078441;28;19967;-78
2023/05/18 12:28:54;;;;;;;;;;;17.10;64.60;;;;;;5042669;28;20356;-79
2023/05/18 12:31:20;;;;;;;;;;;17.10;64.10;;;;;;5059885;28;19931;-78
2023/05/18 12:33:45;;;;;;;;;;;17.10;63.20;;;;;;5061169;28;19963;-78
2023/05/18 12:36:14;;;;;;;;;;;17.20;60.50;;;;;;5078452;28;19925;-79
2023/05/18 12:38:40;;;;;;;;;;;17.00;61.90;;;;;;5096684;28;19931;-78
2023/05/18 12:41:06;;;;;;;;;;;17.00;63.00;;;;;;5101123;28;19981;-78
2023/05/18 12:43:35;;;;;;;;;;;17.10;63.80;;;;;;5067157;28;19974;-79
2023/05/18 12:46:01;;;;;;;;;;;17.30;63.80;;;;;;5085759;28;19935;-79
2023/05/18 12:48:28;;;;;;;;;;;17.40;62.00;;;;;;5057812;28;19951;-78
2023/05/18 12:50:54;;;;;;;;;;;17.60;62.80;;;;;;5098173;28;20007;-78
2023/05/18 12:53:20;;;;;;;;;;;17.70;59.90;;;;;;5095854;28;19930;-78
2023/05/18 12:55:55;;;;;;;;;;;17.70;61.30;;;;;;5130968;27;19963;-79
2023/05/18 12:58:20;;;;;;;;;;;17.90;63.40;;;;;;5121482;27;20674;-79
2023/05/18 13:00:47;;;;;;;;;;;17.90;58.80;;;;;;5088812;28;19928;-78
2023/05/18 13:03:23;;;;;;;;;;;17.80;60.10;;;;;;5084042;28;19924;-78
2023/05/18 13:06:05;;;;;;;;;;;17.80;62.30;;;;;;5085273;28;19963;-79
2023/05/18 13:08:31;;;;;;;;;;;17.80;59.20;;;;;;5064730;28;19931;-79
2023/05/18 13:11:01;;;;;;;;;;;17.70;62.30;;;;;;5098610;28;19938;-77
2023/05/18 13:13:26;;;;;;;;;;;17.70;60.40;;;;;;5078043;28;19928;-77
2023/05/18 13:15:52;;;;;;;;;;;17.60;62.00;;;;;;5080906;28;20082;-78
2023/05/18 13:18:17;;;;;;;;;;;17.60;61.30;;;;;;5087548;28;19967;-75
2023/05/18 13:20:47;;;;;;;;;;;17.70;61.40;;;;;;5078768;28;20178;-79
2023/05/18 13:23:14;;;;;;;;;;;17.90;63.10;;;;;;5074463;28;19931;-79
2023/05/18 13:25:40;;;;;;;;;;;17.90;60.90;;;;;;5088978;28;19931;-78
2023/05/18 13:28:05;;;;;;;;;;;17.90;61.20;;;;;;5067469;28;19983;-80
2023/05/18 13:30:32;;;;;;;;;;;17.80;58.70;;;;;;5065640;28;19931;-80
2023/05/18 13:32:58;;;;;;;;;;;17.80;61.40;;;;;;5097041;28;19963;-80
2023/05/18 13:35:24;;;;;;;;;;;17.80;61.60;;;;;;5080961;28;19974;-79
2023/05/18 13:37:50;;;;;;;;;;;17.90;60.70;;;;;;5097051;28;19928;-79
2023/05/18 13:40:16;;;;;;;;;;;18.00;60.80;;;;;;5068623;28;19924;-78
2023/05/18 13:42:42;;;;;;;;;;;18.00;60.60;;;;;;5091958;28;19928;-78
2023/05/18 13:45:08;;;;;;;;;;;17.90;60.40;;;;;;5075545;28;19929;-79
2023/05/18 13:47:34;;;;;;;;;;;17.80;60.10;;;;;;5061461;28;19924;-78
2023/05/18 13:49:59;;;;;;;;;;;17.60;61.20;;;;;;5074868;28;19931;-79
2023/05/18 13:52:25;;;;;;;;;;;17.40;62.20;;;;;;5096597;28;20276;-80
2023/05/18 13:54:50;;;;;;;;;;;17.20;60.80;;;;;;5087378;28;19928;-79
2023/05/18 13:57:16;;;;;;;;;;;17.20;62.90;;;;;;5085357;28;20003;-78
2023/05/18 13:59:42;;;;;;;;;;;17.10;62.70;;;;;;5056099;28;19924;-78
2023/05/18 14:02:07;;;;;;;;;;;17.10;62.60;;;;;;5081973;28;19935;-79
2023/05/18 14:04:33;;;;;;;;;;;17.00;62.10;;;;;;5069625;28;20432;-78
2023/05/18 14:06:58;;;;;;;;;;;17.00;60.40;;;;;;5072181;28;19963;-78
2023/05/18 14:09:27;;;;;;;;;;;17.10;62.50;;;;;;5086341;28;19937;-79
2023/05/18 14:11:53;;;;;;;;;;;17.10;63.40;;;;;;5065065;28;19969;-80
2023/05/18 14:14:18;;;;;;;;;;;17.20;62.90;;;;;;5099742;28;20353;-79
2023/05/18 14:16:44;;;;;;;;;;;17.20;62.20;;;;;;5073088;28;19924;-79
2023/05/18 14:19:10;;;;;;;;;;;17.00;62.40;;;;;;5098652;28;19923;-79
2023/05/18 14:21:35;;;;;;;;;;;17.00;64.40;;;;;;5064015;28;19992;-80
2023/05/18 14:24:02;;;;;;;;;;;16.90;63.60;;;;;;5075892;28;19924;-79